Processing data for WRCC monitor ID eat2 at 2026-08-31 00:12:38 UTC

Download data …

DEBUG [2026-08-31 00:12:38]  ----- wrcc_downloadData() ----- 
TRACE [2026-08-31 00:12:38] Downloading WRCC data for unitID eat2 ...

Parse, QC and Cluster …

DEBUG [2026-08-31 00:12:40]  ----- wrcc_parseData() ----- 
DEBUG [2026-08-31 00:12:40]  ----- wrcc_identifyDataFormat() ----- 
DEBUG [2026-08-31 00:12:40]  ----- addClustering() ----- 
DEBUG [2026-08-31 00:12:40]  ----- wrcc_qualityControl() ----- 
TRACE [2026-08-31 00:12:40] Applying EBAM QC rules ...
DEBUG [2026-08-31 00:12:40]  ----- wrcc_EBAMQualityControl() ----- 
TRACE [2026-08-31 00:12:40] Flagging 1 rows with invalid Type information
TRACE [2026-08-31 00:12:40] Bad Types:  NA
TRACE [2026-08-31 00:12:40] Flow has 0 missing or out of range values
TRACE [2026-08-31 00:12:40] AT has 0 missing or out of range values
TRACE [2026-08-31 00:12:40] RHi has 0 missing or out of range values
TRACE [2026-08-31 00:12:40] Conc has 0 missing or out of range values
TRACE [2026-08-31 00:12:40] datetime has 0 missing or out of range values
TRACE [2026-08-31 00:12:40] Retaining 141 rows of measurements; 1 bad rows flagged

QC’d data with Flags

DateTime,GPSLat,GPSLon,Type,SerialNumber,ConcRT,ConcHlyAv,AvAirFlw,AvAirTemp,RelHumidity,Misc2,SensorIntAT,SensorIntRH,WindSpeed,WindDir,BatteryVoltage,Alarm,monitorName,monitorType,QCFlag_anyBad,QCFlag_reasonCode,QCFlag_badLon,QCFlag_badLat,QCFlag_badType,QCFlag_badFlow,QCFlag_badAT,QCFlag_badRHi,QCFlag_badConcHr,QCFlag_badDateAndTime,QCFlag_duplicateHr,datetime,clusterLon,clusterLat,clusterID
2608250000,35.896904,-105.990318,0,237400,-2.999,-0.9999,16.5,32.8,0,NA,41,6,0.3,243,13.9,0,AQB Smoke EBAM T-2,EBAM,FALSE,NA,FALSE,FALSE,FALSE,FALSE,FALSE,FALSE,FALSE,FALSE,FALSE,2026-08-25T00:00:00Z,-105.990341,35.896923,1
2608250100,35.896904,-105.990318,0,237400,4,4,16.7,30.7,0,NA,38.7,7,0.8,186,13.9,0,AQB Smoke EBAM T-2,EBAM,FALSE,NA,FALSE,FALSE,FALSE,FALSE,FALSE,FALSE,FALSE,FALSE,FALSE,2026-08-25T01:00:00Z,-105.990341,35.896923,1
2608250200,35.896904,-105.990318,0,237400,-1.999,-2.999,16.7,27.6,0,NA,34.8,9,0.7,117,13.9,0,AQB Smoke EBAM T-2,EBAM,FALSE,NA,FALSE,FALSE,FALSE,FALSE,FALSE,FALSE,FALSE,FALSE,FALSE,2026-08-25T02:00:00Z,-105.990341,35.896923,1
2608250300,35.896904,-105.990318,0,237400,-3.999,1,16.7,25.8,0,NA,31.2,11,1.4,205,13.9,0,AQB Smoke EBAM T-2,EBAM,FALSE,NA,FALSE,FALSE,FALSE,FALSE,FALSE,FALSE,FALSE,FALSE,FALSE,2026-08-25T03:00:00Z,-105.990341,35.896923,1
2608250400,35.896904,-105.990318,0,237400,4,0,16.7,25.1,0,NA,29.8,12,1.5,134,14,0,AQB Smoke EBAM T-2,EBAM,FALSE,NA,FALSE,FALSE,FALSE,FALSE,FALSE,FALSE,FALSE,FALSE,FALSE,2026-08-25T04:00:00Z,-105.990341,35.896923,1
2608250500,35.896904,-105.990318,0,237400,-3.999,2,16.7,23.3,0,NA,27.7,14,1.5,120,13.9,0,AQB Smoke EBAM T-2,EBAM,FALSE,NA,FALSE,FALSE,FALSE,FALSE,FALSE,FALSE,FALSE,FALSE,FALSE,2026-08-25T05:00:00Z,-105.990341,35.896923,1
2608250600,35.896904,-105.990318,0,237400,4,0,16.7,20.8,0,NA,26,15,0.7,284,13.8,0,AQB Smoke EBAM T-2,EBAM,FALSE,NA,FALSE,FALSE,FALSE,FALSE,FALSE,FALSE,FALSE,FALSE,FALSE,2026-08-25T06:00:00Z,-105.990341,35.896923,1
2608250700,35.896904,-105.990318,0,237400,3,7,16.7,19.8,0,NA,24.6,16,0.3,328,13.9,0,AQB Smoke EBAM T-2,EBAM,FALSE,NA,FALSE,FALSE,FALSE,FALSE,FALSE,FALSE,FALSE,FALSE,FALSE,2026-08-25T07:00:00Z,-105.990341,35.896923,1
2608250800,35.896904,-105.990318,0,237400,13,8,16.7,18.6,0,NA,23.3,18,0.3,356,13.8,0,AQB Smoke EBAM T-2,EBAM,FALSE,NA,FALSE,FALSE,FALSE,FALSE,FALSE,FALSE,FALSE,FALSE,FALSE,2026-08-25T08:00:00Z,-105.990341,35.896923,1
2608250900,35.896923,-105.990341,0,237400,4,5,16.7,16.4,0,NA,21.6,20,0.3,116,13.9,0,AQB Smoke EBAM T-2,EBAM,FALSE,NA,FALSE,FALSE,FALSE,FALSE,FALSE,FALSE,FALSE,FALSE,FALSE,2026-08-25T09:00:00Z,-105.990341,35.896923,1
2608251000,35.896923,-105.990341,0,237400,8,6,16.7,15.5,0,NA,20.3,22,0.3,124,13.9,0,AQB Smoke EBAM T-2,EBAM,FALSE,NA,FALSE,FALSE,FALSE,FALSE,FALSE,FALSE,FALSE,FALSE,FALSE,2026-08-25T10:00:00Z,-105.990341,35.896923,1
2608251100,35.896923,-105.990341,0,237400,13,13,16.7,15.7,0,NA,20.3,22,0.8,111,13.9,0,AQB Smoke EBAM T-2,EBAM,FALSE,NA,FALSE,FALSE,FALSE,FALSE,FALSE,FALSE,FALSE,FALSE,FALSE,2026-08-25T11:00:00Z,-105.990341,35.896923,1
2608251200,35.896923,-105.990341,0,237400,6,8,16.7,15.2,0,NA,20,24,0.8,110,14,0,AQB Smoke EBAM T-2,EBAM,FALSE,NA,FALSE,FALSE,FALSE,FALSE,FALSE,FALSE,FALSE,FALSE,FALSE,2026-08-25T12:00:00Z,-105.990341,35.896923,1
2608251300,35.896923,-105.990341,0,237400,4,4,16.7,14.9,0,NA,19.4,25,0.9,99,14,0,AQB Smoke EBAM T-2,EBAM,FALSE,NA,FALSE,FALSE,FALSE,FALSE,FALSE,FALSE,FALSE,FALSE,FALSE,2026-08-25T13:00:00Z,-105.990341,35.896923,1
2608251400,35.896923,-105.990341,0,237400,0,4,16.7,17,0,NA,21.3,23,0.6,55,14,0,AQB Smoke EBAM T-2,EBAM,FALSE,NA,FALSE,FALSE,FALSE,FALSE,FALSE,FALSE,FALSE,FALSE,FALSE,2026-08-25T14:00:00Z,-105.990341,35.896923,1
2608251500,35.896923,-105.990341,0,237400,10,4,16.7,21.3,0,NA,26.9,17,0.8,214,13.9,0,AQB Smoke EBAM T-2,EBAM,FALSE,NA,FALSE,FALSE,FALSE,FALSE,FALSE,FALSE,FALSE,FALSE,FALSE,2026-08-25T15:00:00Z,-105.990341,35.896923,1
2608251600,35.896923,-105.990341,0,237400,9,15,16.7,22.7,0,NA,30.9,13,1.3,346,13.9,0,AQB Smoke EBAM T-2,EBAM,FALSE,NA,FALSE,FALSE,FALSE,FALSE,FALSE,FALSE,FALSE,FALSE,FALSE,2026-08-25T16:00:00Z,-105.990341,35.896923,1
2608251700,35.896923,-105.990341,0,237400,14,12,16.7,26.6,0,NA,34.2,9,1.5,86,13.9,0,AQB Smoke EBAM T-2,EBAM,FALSE,NA,FALSE,FALSE,FALSE,FALSE,FALSE,FALSE,FALSE,FALSE,FALSE,2026-08-25T17:00:00Z,-105.990341,35.896923,1
2608251800,35.896923,-105.990341,0,237400,9,5,16.7,28.5,0,NA,38.5,7,1.5,304,13.9,0,AQB Smoke EBAM T-2,EBAM,FALSE,NA,FALSE,FALSE,FALSE,FALSE,FALSE,FALSE,FALSE,FALSE,FALSE,2026-08-25T18:00:00Z,-105.990341,35.896923,1
2608251900,35.896923,-105.990341,0,237400,4,6,16.7,29.6,0,NA,39.4,7,1.7,304,13.9,0,AQB Smoke EBAM T-2,EBAM,FALSE,NA,FALSE,FALSE,FALSE,FALSE,FALSE,FALSE,FALSE,FALSE,FALSE,2026-08-25T19:00:00Z,-105.990341,35.896923,1
2608252000,35.896923,-105.990341,0,237400,4,1,16.6,31,0,NA,40.7,6,2.1,328,13.9,0,AQB Smoke EBAM T-2,EBAM,FALSE,NA,FALSE,FALSE,FALSE,FALSE,FALSE,FALSE,FALSE,FALSE,FALSE,2026-08-25T20:00:00Z,-105.990341,35.896923,1
2608252100,35.896923,-105.990341,0,237400,-0.9999,4,16.7,28,0,NA,37,9,2.5,317,13.9,0,AQB Smoke EBAM T-2,EBAM,FALSE,NA,FALSE,FALSE,FALSE,FALSE,FALSE,FALSE,FALSE,FALSE,FALSE,2026-08-25T21:00:00Z,-105.990341,35.896923,1
2608252200,35.896923,-105.990341,0,237400,1,2,16.7,26,0,NA,32,13,0.9,131,13.9,0,AQB Smoke EBAM T-2,EBAM,FALSE,NA,FALSE,FALSE,FALSE,FALSE,FALSE,FALSE,FALSE,FALSE,FALSE,2026-08-25T22:00:00Z,-105.990341,35.896923,1
2608252300,35.896923,-105.990341,0,237400,0,-1.999,16.7,28.2,0,NA,32.5,8,0.3,190,13.9,0,AQB Smoke EBAM T-2,EBAM,FALSE,NA,FALSE,FALSE,FALSE,FALSE,FALSE,FALSE,FALSE,FALSE,FALSE,2026-08-25T23:00:00Z,-105.990341,35.896923,1
2608260000,35.896923,-105.990341,0,237400,5,1,16.6,31.5,0,NA,36,7,0.6,197,13.9,0,AQB Smoke EBAM T-2,EBAM,FALSE,NA,FALSE,FALSE,FALSE,FALSE,FALSE,FALSE,FALSE,FALSE,FALSE,2026-08-26T00:00:00Z,-105.990341,35.896923,1
2608260100,35.896923,-105.990341,0,237400,5,11,16.7,31.9,0,NA,37.8,6,0.9,223,13.9,0,AQB Smoke EBAM T-2,EBAM,FALSE,NA,FALSE,FALSE,FALSE,FALSE,FALSE,FALSE,FALSE,FALSE,FALSE,2026-08-26T01:00:00Z,-105.990341,35.896923,1
2608260200,35.896923,-105.990341,0,237400,6,2,16.7,28.6,0,NA,36.1,9,0.5,208,13.9,0,AQB Smoke EBAM T-2,EBAM,FALSE,NA,FALSE,FALSE,FALSE,FALSE,FALSE,FALSE,FALSE,FALSE,FALSE,2026-08-26T02:00:00Z,-105.990341,35.896923,1
2608260300,35.896923,-105.990341,0,237400,-4.999,-4.999,16.7,26.2,0,NA,32.1,12,1.7,337,13.9,0,AQB Smoke EBAM T-2,EBAM,FALSE,NA,FALSE,FALSE,FALSE,FALSE,FALSE,FALSE,FALSE,FALSE,FALSE,2026-08-26T03:00:00Z,-105.990341,35.896923,1
2608260400,35.896923,-105.990341,0,237400,0,4,16.7,25.7,0,NA,30.2,12,1.9,326,13.9,0,AQB Smoke EBAM T-2,EBAM,FALSE,NA,FALSE,FALSE,FALSE,FALSE,FALSE,FALSE,FALSE,FALSE,FALSE,2026-08-26T04:00:00Z,-105.990341,35.896923,1
2608260500,35.896923,-105.990341,0,237400,1,-1.999,16.7,23.5,0,NA,28.6,13,0.6,338,14,0,AQB Smoke EBAM T-2,EBAM,FALSE,NA,FALSE,FALSE,FALSE,FALSE,FALSE,FALSE,FALSE,FALSE,FALSE,2026-08-26T05:00:00Z,-105.990341,35.896923,1
2608260600,35.896923,-105.990341,0,237400,2,-0.9999,16.7,21.9,0,NA,27.2,15,0.3,157,14,0,AQB Smoke EBAM T-2,EBAM,FALSE,NA,FALSE,FALSE,FALSE,FALSE,FALSE,FALSE,FALSE,FALSE,FALSE,2026-08-26T06:00:00Z,-105.990341,35.896923,1
2608260700,35.896923,-105.990341,0,237400,-1.999,3,16.7,20.6,0,NA,25.9,16,0.3,181,14,0,AQB Smoke EBAM T-2,EBAM,FALSE,NA,FALSE,FALSE,FALSE,FALSE,FALSE,FALSE,FALSE,FALSE,FALSE,2026-08-26T07:00:00Z,-105.990341,35.896923,1
2608260800,35.896912,-105.990349,0,237400,2,0,16.7,18.7,0,NA,23.9,19,0.3,106,14,0,AQB Smoke EBAM T-2,EBAM,FALSE,NA,FALSE,FALSE,FALSE,FALSE,FALSE,FALSE,FALSE,FALSE,FALSE,2026-08-26T08:00:00Z,-105.990341,35.896923,1
2608260900,35.896912,-105.990349,0,237400,-4.999,-2.999,16.7,18.2,0,NA,22.8,19,0.9,140,14,0,AQB Smoke EBAM T-2,EBAM,FALSE,NA,FALSE,FALSE,FALSE,FALSE,FALSE,FALSE,FALSE,FALSE,FALSE,2026-08-26T09:00:00Z,-105.990341,35.896923,1
2608261000,35.896912,-105.990349,0,237400,5,6,16.7,19.2,0,NA,22.9,20,0.7,306,14,0,AQB Smoke EBAM T-2,EBAM,FALSE,NA,FALSE,FALSE,FALSE,FALSE,FALSE,FALSE,FALSE,FALSE,FALSE,2026-08-26T10:00:00Z,-105.990341,35.896923,1
2608261100,35.896912,-105.990349,0,237400,-2.999,-1.999,16.7,18.3,0,NA,22.7,20,0.9,317,14,0,AQB Smoke EBAM T-2,EBAM,FALSE,NA,FALSE,FALSE,FALSE,FALSE,FALSE,FALSE,FALSE,FALSE,FALSE,2026-08-26T11:00:00Z,-105.990341,35.896923,1
2608261200,35.896912,-105.990349,0,237400,2,-0.9999,16.7,17.5,0,NA,21.6,22,0.9,29,14,0,AQB Smoke EBAM T-2,EBAM,FALSE,NA,FALSE,FALSE,FALSE,FALSE,FALSE,FALSE,FALSE,FALSE,FALSE,2026-08-26T12:00:00Z,-105.990341,35.896923,1
2608261300,35.896912,-105.990349,0,237400,2,0,16.7,15.7,0,NA,20.7,25,0.3,152,14,0,AQB Smoke EBAM T-2,EBAM,FALSE,NA,FALSE,FALSE,FALSE,FALSE,FALSE,FALSE,FALSE,FALSE,FALSE,2026-08-26T13:00:00Z,-105.990341,35.896923,1
2608261400,35.896912,-105.990349,0,237400,0,0,16.7,17.4,0,NA,21.5,24,1,82,14,0,AQB Smoke EBAM T-2,EBAM,FALSE,NA,FALSE,FALSE,FALSE,FALSE,FALSE,FALSE,FALSE,FALSE,FALSE,2026-08-26T14:00:00Z,-105.990341,35.896923,1
2608261500,35.896912,-105.990349,0,237400,10,10,16.7,21.3,0,NA,26.6,19,1.2,356,14,0,AQB Smoke EBAM T-2,EBAM,FALSE,NA,FALSE,FALSE,FALSE,FALSE,FALSE,FALSE,FALSE,FALSE,FALSE,2026-08-26T15:00:00Z,-105.990341,35.896923,1
2608261600,35.896912,-105.990349,0,237400,5,7,16.7,23,0,NA,29.8,15,1.5,343,14,0,AQB Smoke EBAM T-2,EBAM,FALSE,NA,FALSE,FALSE,FALSE,FALSE,FALSE,FALSE,FALSE,FALSE,FALSE,2026-08-26T16:00:00Z,-105.990341,35.896923,1
2608261700,35.896912,-105.990349,0,237400,10,11,16.7,25.5,0,NA,33.8,12,1.5,282,13.9,0,AQB Smoke EBAM T-2,EBAM,FALSE,NA,FALSE,FALSE,FALSE,FALSE,FALSE,FALSE,FALSE,FALSE,FALSE,2026-08-26T17:00:00Z,-105.990341,35.896923,1
2608261800,35.896912,-105.990349,0,237400,10,10,16.7,27.3,0,NA,37.3,9,1.2,338,13.9,0,AQB Smoke EBAM T-2,EBAM,FALSE,NA,FALSE,FALSE,FALSE,FALSE,FALSE,FALSE,FALSE,FALSE,FALSE,2026-08-26T18:00:00Z,-105.990341,35.896923,1
2608261900,35.896912,-105.990349,0,237400,12,9,16.7,28.9,0,NA,39,8,1.3,243,13.9,0,AQB Smoke EBAM T-2,EBAM,FALSE,NA,FALSE,FALSE,FALSE,FALSE,FALSE,FALSE,FALSE,FALSE,FALSE,2026-08-26T19:00:00Z,-105.990341,35.896923,1
2608262000,35.896912,-105.990349,0,237400,-3.999,-2.999,16.7,26.9,0,NA,35.5,10,0.9,296,13.9,0,AQB Smoke EBAM T-2,EBAM,FALSE,NA,FALSE,FALSE,FALSE,FALSE,FALSE,FALSE,FALSE,FALSE,FALSE,2026-08-26T20:00:00Z,-105.990341,35.896923,1
2608262100,35.896912,-105.990349,0,237400,6,4,16.7,26.4,0,NA,33.4,13,1.3,240,13.9,0,AQB Smoke EBAM T-2,EBAM,FALSE,NA,FALSE,FALSE,FALSE,FALSE,FALSE,FALSE,FALSE,FALSE,FALSE,2026-08-26T21:00:00Z,-105.990341,35.896923,1
2608262200,35.896912,-105.990349,0,237400,4,6,16.7,27.6,0,NA,34.8,10,1.8,221,13.9,0,AQB Smoke EBAM T-2,EBAM,FALSE,NA,FALSE,FALSE,FALSE,FALSE,FALSE,FALSE,FALSE,FALSE,FALSE,2026-08-26T22:00:00Z,-105.990341,35.896923,1
2608262300,35.896912,-105.990349,0,237400,2,0,16.7,27.8,0,NA,34.1,8,1.2,185,13.9,0,AQB Smoke EBAM T-2,EBAM,FALSE,NA,FALSE,FALSE,FALSE,FALSE,FALSE,FALSE,FALSE,FALSE,FALSE,2026-08-26T23:00:00Z,-105.990341,35.896923,1
2608270000,35.896912,-105.990349,0,237400,-0.9999,1,16.6,27.4,0,NA,33.7,9,0.3,194,13.9,0,AQB Smoke EBAM T-2,EBAM,FALSE,NA,FALSE,FALSE,FALSE,FALSE,FALSE,FALSE,FALSE,FALSE,FALSE,2026-08-27T00:00:00Z,-105.990341,35.896923,1
2608270100,35.896912,-105.990349,0,237400,2,0,16.7,26.4,0,NA,32.3,10,0.3,7,13.9,0,AQB Smoke EBAM T-2,EBAM,FALSE,NA,FALSE,FALSE,FALSE,FALSE,FALSE,FALSE,FALSE,FALSE,FALSE,2026-08-27T01:00:00Z,-105.990341,35.896923,1
2608270200,35.896912,-105.990349,0,237400,6,7,16.7,22.6,0,NA,27.9,18,0.3,60,14,0,AQB Smoke EBAM T-2,EBAM,FALSE,NA,FALSE,FALSE,FALSE,FALSE,FALSE,FALSE,FALSE,FALSE,FALSE,2026-08-27T02:00:00Z,-105.990341,35.896923,1
2608270300,35.896912,-105.990349,0,237400,-4.999,-3.999,16.7,21.8,0,NA,25.2,19,4.3,163,14,0,AQB Smoke EBAM T-2,EBAM,FALSE,NA,FALSE,FALSE,FALSE,FALSE,FALSE,FALSE,FALSE,FALSE,FALSE,2026-08-27T03:00:00Z,-105.990341,35.896923,1
2608270400,35.896912,-105.990349,0,237400,7,3,16.7,21.2,0,NA,25.1,19,2.3,260,13.9,0,AQB Smoke EBAM T-2,EBAM,FALSE,NA,FALSE,FALSE,FALSE,FALSE,FALSE,FALSE,FALSE,FALSE,FALSE,2026-08-27T04:00:00Z,-105.990341,35.896923,1
2608270500,35.896912,-105.990349,0,237400,2,1,16.7,18.9,0,NA,23.8,23,1.3,119,13.9,0,AQB Smoke EBAM T-2,EBAM,FALSE,NA,FALSE,FALSE,FALSE,FALSE,FALSE,FALSE,FALSE,FALSE,FALSE,2026-08-27T05:00:00Z,-105.990341,35.896923,1
2608270600,35.896912,-105.990349,0,237400,0,-0.9999,16.7,17.7,0,NA,22.7,24,0.4,248,13.9,0,AQB Smoke EBAM T-2,EBAM,FALSE,NA,FALSE,FALSE,FALSE,FALSE,FALSE,FALSE,FALSE,FALSE,FALSE,2026-08-27T06:00:00Z,-105.990341,35.896923,1
2608270700,35.896942,-105.990341,0,237400,1,2,16.7,15.9,0,NA,21.4,27,0.3,120,13.9,0,AQB Smoke EBAM T-2,EBAM,FALSE,NA,FALSE,FALSE,FALSE,FALSE,FALSE,FALSE,FALSE,FALSE,FALSE,2026-08-27T07:00:00Z,-105.990341,35.896923,1
2608270800,35.896942,-105.990341,0,237400,1,-0.9999,16.7,14.5,0,NA,19.6,30,0.3,72,14,0,AQB Smoke EBAM T-2,EBAM,FALSE,NA,FALSE,FALSE,FALSE,FALSE,FALSE,FALSE,FALSE,FALSE,FALSE,2026-08-27T08:00:00Z,-105.990341,35.896923,1
2608270900,35.896942,-105.990341,0,237400,-0.9999,-2.999,16.7,13.4,0,NA,18.4,31,0.3,94,14,0,AQB Smoke EBAM T-2,EBAM,FALSE,NA,FALSE,FALSE,FALSE,FALSE,FALSE,FALSE,FALSE,FALSE,FALSE,2026-08-27T09:00:00Z,-105.990341,35.896923,1
2608271000,35.896942,-105.990341,0,237400,-3.999,0,16.7,12.3,0,NA,17.3,33,0.3,100,14,0,AQB Smoke EBAM T-2,EBAM,FALSE,NA,FALSE,FALSE,FALSE,FALSE,FALSE,FALSE,FALSE,FALSE,FALSE,2026-08-27T10:00:00Z,-105.990341,35.896923,1
2608271100,35.896942,-105.990341,0,237400,4,0,16.7,11.8,0,NA,16.5,33,0.3,81,14,0,AQB Smoke EBAM T-2,EBAM,FALSE,NA,FALSE,FALSE,FALSE,FALSE,FALSE,FALSE,FALSE,FALSE,FALSE,2026-08-27T11:00:00Z,-105.990341,35.896923,1
2608271200,35.896942,-105.990341,0,237400,-0.9999,4,16.7,11.8,0,NA,15.9,35,0.3,88,13.9,0,AQB Smoke EBAM T-2,EBAM,FALSE,NA,FALSE,FALSE,FALSE,FALSE,FALSE,FALSE,FALSE,FALSE,FALSE,2026-08-27T12:00:00Z,-105.990341,35.896923,1
2608271300,35.896942,-105.990341,0,237400,6,0,16.7,10.7,0,NA,15.7,35,0.3,79,13.9,0,AQB Smoke EBAM T-2,EBAM,FALSE,NA,FALSE,FALSE,FALSE,FALSE,FALSE,FALSE,FALSE,FALSE,FALSE,2026-08-27T13:00:00Z,-105.990341,35.896923,1
2608271400,35.896942,-105.990341,0,237400,-4.999,-0.9999,16.7,13.6,0,NA,17.7,32,0.5,9,13.9,0,AQB Smoke EBAM T-2,EBAM,FALSE,NA,FALSE,FALSE,FALSE,FALSE,FALSE,FALSE,FALSE,FALSE,FALSE,2026-08-27T14:00:00Z,-105.990341,35.896923,1
2608271500,35.896942,-105.990341,0,237400,14,13,16.7,16.8,0,NA,23.1,23,0.7,245,13.9,0,AQB Smoke EBAM T-2,EBAM,FALSE,NA,FALSE,FALSE,FALSE,FALSE,FALSE,FALSE,FALSE,FALSE,FALSE,2026-08-27T15:00:00Z,-105.990341,35.896923,1
2608271600,35.896942,-105.990341,0,237400,12,7,16.7,20.1,0,NA,27.3,18,0.6,226,13.9,0,AQB Smoke EBAM T-2,EBAM,FALSE,NA,FALSE,FALSE,FALSE,FALSE,FALSE,FALSE,FALSE,FALSE,FALSE,2026-08-27T16:00:00Z,-105.990341,35.896923,1
2608271700,35.896942,-105.990341,0,237400,10,10,16.7,22.3,0,NA,31.2,13,1.2,282,13.9,0,AQB Smoke EBAM T-2,EBAM,FALSE,NA,FALSE,FALSE,FALSE,FALSE,FALSE,FALSE,FALSE,FALSE,FALSE,2026-08-27T17:00:00Z,-105.990341,35.896923,1
2608271800,35.896942,-105.990341,0,237400,12,10,16.7,25.3,0,NA,34.9,10,1.2,312,13.9,0,AQB Smoke EBAM T-2,EBAM,FALSE,NA,FALSE,FALSE,FALSE,FALSE,FALSE,FALSE,FALSE,FALSE,FALSE,2026-08-27T18:00:00Z,-105.990341,35.896923,1
2608271900,35.896942,-105.990341,0,237400,10,15,16.7,28.6,0,NA,38.5,7,1.2,281,13.9,0,AQB Smoke EBAM T-2,EBAM,FALSE,NA,FALSE,FALSE,FALSE,FALSE,FALSE,FALSE,FALSE,FALSE,FALSE,2026-08-27T19:00:00Z,-105.990341,35.896923,1
2608272000,35.896942,-105.990341,0,237400,6,9,16.7,29.5,0,NA,40.3,6,1.4,345,13.9,0,AQB Smoke EBAM T-2,EBAM,FALSE,NA,FALSE,FALSE,FALSE,FALSE,FALSE,FALSE,FALSE,FALSE,FALSE,2026-08-27T20:00:00Z,-105.990341,35.896923,1
2608272100,35.896942,-105.990341,0,237400,-3.999,-4.999,16.7,28.9,0,NA,37.5,7,2.7,255,13.9,0,AQB Smoke EBAM T-2,EBAM,FALSE,NA,FALSE,FALSE,FALSE,FALSE,FALSE,FALSE,FALSE,FALSE,FALSE,2026-08-27T21:00:00Z,-105.990341,35.896923,1
2608272200,35.896942,-105.990341,0,237400,8,8,16.7,30.5,0,NA,38.4,6,2.5,245,13.9,0,AQB Smoke EBAM T-2,EBAM,FALSE,NA,FALSE,FALSE,FALSE,FALSE,FALSE,FALSE,FALSE,FALSE,FALSE,2026-08-27T22:00:00Z,-105.990341,35.896923,1
2608272300,35.896942,-105.990341,0,237400,-3.999,-0.9999,16.7,29.8,0,NA,37.6,6,2.4,245,13.9,0,AQB Smoke EBAM T-2,EBAM,FALSE,NA,FALSE,FALSE,FALSE,FALSE,FALSE,FALSE,FALSE,FALSE,FALSE,2026-08-27T23:00:00Z,-105.990341,35.896923,1
2608280000,35.896942,-105.990341,0,237400,0,3,16.6,30.2,0,NA,36.8,6,0.6,248,14,0,AQB Smoke EBAM T-2,EBAM,FALSE,NA,FALSE,FALSE,FALSE,FALSE,FALSE,FALSE,FALSE,FALSE,FALSE,2026-08-28T00:00:00Z,-105.990341,35.896923,1
2608280100,35.896942,-105.990341,0,237400,-3.999,-4.999,16.7,28.3,0,NA,34.4,8,0.3,268,14,0,AQB Smoke EBAM T-2,EBAM,FALSE,NA,FALSE,FALSE,FALSE,FALSE,FALSE,FALSE,FALSE,FALSE,FALSE,2026-08-28T01:00:00Z,-105.990341,35.896923,1
2608280200,35.896942,-105.990341,0,237400,1,1,16.7,27,0,NA,31.9,10,0.3,166,14,0,AQB Smoke EBAM T-2,EBAM,FALSE,NA,FALSE,FALSE,FALSE,FALSE,FALSE,FALSE,FALSE,FALSE,FALSE,2026-08-28T02:00:00Z,-105.990341,35.896923,1
2608280300,35.896942,-105.990341,0,237400,0,-4.999,16.7,25.6,0,NA,30.1,12,0.3,181,14,0,AQB Smoke EBAM T-2,EBAM,FALSE,NA,FALSE,FALSE,FALSE,FALSE,FALSE,FALSE,FALSE,FALSE,FALSE,2026-08-28T03:00:00Z,-105.990341,35.896923,1
2608280400,35.896942,-105.990341,0,237400,4,5,16.7,24.6,0,NA,28.8,13,0.3,178,14,0,AQB Smoke EBAM T-2,EBAM,FALSE,NA,FALSE,FALSE,FALSE,FALSE,FALSE,FALSE,FALSE,FALSE,FALSE,2026-08-28T04:00:00Z,-105.990341,35.896923,1
2608280500,35.896942,-105.990341,0,237400,-2.999,1,16.7,23.6,0,NA,27.7,15,0.3,179,14,0,AQB Smoke EBAM T-2,EBAM,FALSE,NA,FALSE,FALSE,FALSE,FALSE,FALSE,FALSE,FALSE,FALSE,FALSE,2026-08-28T05:00:00Z,-105.990341,35.896923,1
2608280600,35.896931,-105.990341,0,237400,2,2,16.7,22.2,0,NA,26.3,17,0.3,177,14,0,AQB Smoke EBAM T-2,EBAM,FALSE,NA,FALSE,FALSE,FALSE,FALSE,FALSE,FALSE,FALSE,FALSE,FALSE,2026-08-28T06:00:00Z,-105.990341,35.896923,1
2608280700,35.896931,-105.990341,0,237400,-0.9999,-2.999,16.7,20,0,NA,24.5,19,0.6,295,14,0,AQB Smoke EBAM T-2,EBAM,FALSE,NA,FALSE,FALSE,FALSE,FALSE,FALSE,FALSE,FALSE,FALSE,FALSE,2026-08-28T07:00:00Z,-105.990341,35.896923,1
2608280800,35.896931,-105.990341,0,237400,-2.999,-4.999,16.7,17.5,0,NA,22.6,20,1.1,107,14,0,AQB Smoke EBAM T-2,EBAM,FALSE,NA,FALSE,FALSE,FALSE,FALSE,FALSE,FALSE,FALSE,FALSE,FALSE,2026-08-28T08:00:00Z,-105.990341,35.896923,1
2608280900,35.896931,-105.990341,0,237400,-3.999,0,16.7,16.1,0,NA,20.8,22,1.2,129,14,0,AQB Smoke EBAM T-2,EBAM,FALSE,NA,FALSE,FALSE,FALSE,FALSE,FALSE,FALSE,FALSE,FALSE,FALSE,2026-08-28T09:00:00Z,-105.990341,35.896923,1
2608281000,35.896931,-105.990341,0,237400,3,3,16.7,15.2,0,NA,19.7,24,0.3,91,14,0,AQB Smoke EBAM T-2,EBAM,FALSE,NA,FALSE,FALSE,FALSE,FALSE,FALSE,FALSE,FALSE,FALSE,FALSE,2026-08-28T10:00:00Z,-105.990341,35.896923,1
2608281100,35.896931,-105.990341,0,237400,1,2,16.7,14.8,0,NA,19,24,0.9,132,14,0,AQB Smoke EBAM T-2,EBAM,FALSE,NA,FALSE,FALSE,FALSE,FALSE,FALSE,FALSE,FALSE,FALSE,FALSE,2026-08-28T11:00:00Z,-105.990341,35.896923,1
2608281200,35.896931,-105.990341,0,237400,3,1,16.7,13.9,0,NA,18.4,26,1.1,70,14,0,AQB Smoke EBAM T-2,EBAM,FALSE,NA,FALSE,FALSE,FALSE,FALSE,FALSE,FALSE,FALSE,FALSE,FALSE,2026-08-28T12:00:00Z,-105.990341,35.896923,1
2608281300,35.896931,-105.990341,0,237400,1,3,16.7,13.7,0,NA,18,26,0.9,78,14,0,AQB Smoke EBAM T-2,EBAM,FALSE,NA,FALSE,FALSE,FALSE,FALSE,FALSE,FALSE,FALSE,FALSE,FALSE,2026-08-28T13:00:00Z,-105.990341,35.896923,1
2608281400,35.896931,-105.990341,0,237400,-2.999,-0.9999,16.7,15.5,0,NA,19.6,24,0.6,122,14,0,AQB Smoke EBAM T-2,EBAM,FALSE,NA,FALSE,FALSE,FALSE,FALSE,FALSE,FALSE,FALSE,FALSE,FALSE,2026-08-28T14:00:00Z,-105.990341,35.896923,1
2608281500,35.896931,-105.990341,0,237400,13,13,16.7,19.7,0,NA,25.5,18,0.6,303,14,0,AQB Smoke EBAM T-2,EBAM,FALSE,NA,FALSE,FALSE,FALSE,FALSE,FALSE,FALSE,FALSE,FALSE,FALSE,2026-08-28T15:00:00Z,-105.990341,35.896923,1
2608281600,35.896931,-105.990341,0,237400,11,8,16.7,22.8,0,NA,30.4,13,1,243,14,0,AQB Smoke EBAM T-2,EBAM,FALSE,NA,FALSE,FALSE,FALSE,FALSE,FALSE,FALSE,FALSE,FALSE,FALSE,2026-08-28T16:00:00Z,-105.990341,35.896923,1
2608281700,35.896931,-105.990341,0,237400,10,14,16.7,26,0,NA,34.9,10,1,210,13.9,0,AQB Smoke EBAM T-2,EBAM,FALSE,NA,FALSE,FALSE,FALSE,FALSE,FALSE,FALSE,FALSE,FALSE,FALSE,2026-08-28T17:00:00Z,-105.990341,35.896923,1
2608281800,35.896931,-105.990341,0,237400,11,10,16.7,29.1,0,NA,38.7,8,1.4,169,13.9,0,AQB Smoke EBAM T-2,EBAM,FALSE,NA,FALSE,FALSE,FALSE,FALSE,FALSE,FALSE,FALSE,FALSE,FALSE,2026-08-28T18:00:00Z,-105.990341,35.896923,1
2608281900,35.896931,-105.990341,0,237400,9,7,16.7,30.8,0,NA,40.9,6,1.4,156,13.9,0,AQB Smoke EBAM T-2,EBAM,FALSE,NA,FALSE,FALSE,FALSE,FALSE,FALSE,FALSE,FALSE,FALSE,FALSE,2026-08-28T19:00:00Z,-105.990341,35.896923,1
2608282000,35.896931,-105.990341,0,237400,6,14,16.7,32,0,NA,41.8,5,1.7,257,13.9,0,AQB Smoke EBAM T-2,EBAM,FALSE,NA,FALSE,FALSE,FALSE,FALSE,FALSE,FALSE,FALSE,FALSE,FALSE,2026-08-28T20:00:00Z,-105.990341,35.896923,1
2608282100,35.896931,-105.990341,0,237400,5,1,16.7,31.7,0,NA,41.5,4,2.7,251,13.9,0,AQB Smoke EBAM T-2,EBAM,FALSE,NA,FALSE,FALSE,FALSE,FALSE,FALSE,FALSE,FALSE,FALSE,FALSE,2026-08-28T21:00:00Z,-105.990341,35.896923,1
2608282200,35.896931,-105.990341,0,237400,-4.999,-4.999,16.7,29.4,0,NA,37.2,6,3.3,255,13.9,0,AQB Smoke EBAM T-2,EBAM,FALSE,NA,FALSE,FALSE,FALSE,FALSE,FALSE,FALSE,FALSE,FALSE,FALSE,2026-08-28T22:00:00Z,-105.990341,35.896923,1
2608282300,35.896931,-105.990341,0,237400,6,9,16.7,30.6,0,NA,37,6,2.5,308,13.9,0,AQB Smoke EBAM T-2,EBAM,FALSE,NA,FALSE,FALSE,FALSE,FALSE,FALSE,FALSE,FALSE,FALSE,FALSE,2026-08-28T23:00:00Z,-105.990341,35.896923,1
2608290000,35.896931,-105.990341,0,237400,7,-2.999,16.6,30,0,NA,36.5,7,2.2,353,14,0,AQB Smoke EBAM T-2,EBAM,FALSE,NA,FALSE,FALSE,FALSE,FALSE,FALSE,FALSE,FALSE,FALSE,FALSE,2026-08-29T00:00:00Z,-105.990341,35.896923,1
2608290100,35.896931,-105.990341,0,237400,0,0,16.7,29.5,0,NA,35.5,8,0.3,7,14,0,AQB Smoke EBAM T-2,EBAM,FALSE,NA,FALSE,FALSE,FALSE,FALSE,FALSE,FALSE,FALSE,FALSE,FALSE,2026-08-29T01:00:00Z,-105.990341,35.896923,1
2608290200,35.896931,-105.990341,0,237400,3,6,16.7,26.8,0,NA,32.9,10,0.3,38,14,0,AQB Smoke EBAM T-2,EBAM,FALSE,NA,FALSE,FALSE,FALSE,FALSE,FALSE,FALSE,FALSE,FALSE,FALSE,2026-08-29T02:00:00Z,-105.990341,35.896923,1
2608290300,35.896931,-105.990341,0,237400,-1.999,-4.999,16.7,24.4,0,NA,29.9,12,0.5,122,14,0,AQB Smoke EBAM T-2,EBAM,FALSE,NA,FALSE,FALSE,FALSE,FALSE,FALSE,FALSE,FALSE,FALSE,FALSE,2026-08-29T03:00:00Z,-105.990341,35.896923,1
2608290400,35.896931,-105.990341,0,237400,11,9,16.7,22.9,0,NA,28.3,13,0.7,24,14,0,AQB Smoke EBAM T-2,EBAM,FALSE,NA,FALSE,FALSE,FALSE,FALSE,FALSE,FALSE,FALSE,FALSE,FALSE,2026-08-29T04:00:00Z,-105.990341,35.896923,1
2608290500,35.896927,-105.990334,0,237400,5,8,16.7,21.5,0,NA,26.8,15,0.8,170,14,0,AQB Smoke EBAM T-2,EBAM,FALSE,NA,FALSE,FALSE,FALSE,FALSE,FALSE,FALSE,FALSE,FALSE,FALSE,2026-08-29T05:00:00Z,-105.990341,35.896923,1
2608290600,35.896927,-105.990334,0,237400,7,9,16.7,21.7,0,NA,25.9,16,1.7,189,14,0,AQB Smoke EBAM T-2,EBAM,FALSE,NA,FALSE,FALSE,FALSE,FALSE,FALSE,FALSE,FALSE,FALSE,FALSE,2026-08-29T06:00:00Z,-105.990341,35.896923,1
2608290700,35.896927,-105.990334,0,237400,3,0,16.7,20.5,0,NA,24.9,17,1.4,97,14,0,AQB Smoke EBAM T-2,EBAM,FALSE,NA,FALSE,FALSE,FALSE,FALSE,FALSE,FALSE,FALSE,FALSE,FALSE,2026-08-29T07:00:00Z,-105.990341,35.896923,1
2608290800,35.896927,-105.990334,0,237400,-2.999,-0.9999,16.7,18.9,0,NA,23.5,18,1.1,78,14,0,AQB Smoke EBAM T-2,EBAM,FALSE,NA,FALSE,FALSE,FALSE,FALSE,FALSE,FALSE,FALSE,FALSE,FALSE,2026-08-29T08:00:00Z,-105.990341,35.896923,1
2608290900,35.896927,-105.990334,0,237400,3,3,16.7,17.3,0,NA,22.2,19,0.3,107,14,0,AQB Smoke EBAM T-2,EBAM,FALSE,NA,FALSE,FALSE,FALSE,FALSE,FALSE,FALSE,FALSE,FALSE,FALSE,2026-08-29T09:00:00Z,-105.990341,35.896923,1
2608291000,35.896927,-105.990334,0,237400,4,2,16.7,15.7,0,NA,20.9,21,0.3,116,14,0,AQB Smoke EBAM T-2,EBAM,FALSE,NA,FALSE,FALSE,FALSE,FALSE,FALSE,FALSE,FALSE,FALSE,FALSE,2026-08-29T10:00:00Z,-105.990341,35.896923,1
2608291100,35.896927,-105.990334,0,237400,-0.9999,-1.999,16.7,15.7,0,NA,20.1,22,1,104,14,0,AQB Smoke EBAM T-2,EBAM,FALSE,NA,FALSE,FALSE,FALSE,FALSE,FALSE,FALSE,FALSE,FALSE,FALSE,2026-08-29T11:00:00Z,-105.990341,35.896923,1
2608291200,35.896927,-105.990334,0,237400,3,11,16.7,15.2,0,NA,19.7,22,0.7,35,14,0,AQB Smoke EBAM T-2,EBAM,FALSE,NA,FALSE,FALSE,FALSE,FALSE,FALSE,FALSE,FALSE,FALSE,FALSE,2026-08-29T12:00:00Z,-105.990341,35.896923,1
2608291300,35.896927,-105.990334,0,237400,5,-1.999,16.7,13.6,0,NA,18.7,25,0.8,77,14,0,AQB Smoke EBAM T-2,EBAM,FALSE,NA,FALSE,FALSE,FALSE,FALSE,FALSE,FALSE,FALSE,FALSE,FALSE,2026-08-29T13:00:00Z,-105.990341,35.896923,1
2608291400,35.896927,-105.990334,0,237400,3,5,16.7,15.5,0,NA,19.9,23,0.9,101,13.9,0,AQB Smoke EBAM T-2,EBAM,FALSE,NA,FALSE,FALSE,FALSE,FALSE,FALSE,FALSE,FALSE,FALSE,FALSE,2026-08-29T14:00:00Z,-105.990341,35.896923,1
2608291700,35.896923,-105.990334,0,237400,23,26,16.7,26,0,NA,34.4,10,1.4,226,13.9,0,AQB Smoke EBAM T-2,EBAM,FALSE,NA,FALSE,FALSE,FALSE,FALSE,FALSE,FALSE,FALSE,FALSE,FALSE,2026-08-29T17:00:00Z,-105.990341,35.896923,1
2608291800,35.896923,-105.990334,0,237400,10,7,16.7,29.3,0,NA,38.7,7,1.1,211,13.9,0,AQB Smoke EBAM T-2,EBAM,FALSE,NA,FALSE,FALSE,FALSE,FALSE,FALSE,FALSE,FALSE,FALSE,FALSE,2026-08-29T18:00:00Z,-105.990341,35.896923,1
2608291900,35.896923,-105.990334,0,237400,6,7,16.7,30.7,0,NA,40.6,6,1.5,193,13.9,0,AQB Smoke EBAM T-2,EBAM,FALSE,NA,FALSE,FALSE,FALSE,FALSE,FALSE,FALSE,FALSE,FALSE,FALSE,2026-08-29T19:00:00Z,-105.990341,35.896923,1
2608292000,35.896923,-105.990334,0,237400,3,4,16.7,32.1,0,NA,41.7,5,1.8,187,13.9,0,AQB Smoke EBAM T-2,EBAM,FALSE,NA,FALSE,FALSE,FALSE,FALSE,FALSE,FALSE,FALSE,FALSE,FALSE,2026-08-29T20:00:00Z,-105.990341,35.896923,1
2608292100,35.896923,-105.990334,0,237400,6,6,16.7,32.7,0,NA,42.7,5,1.9,232,13.9,0,AQB Smoke EBAM T-2,EBAM,FALSE,NA,FALSE,FALSE,FALSE,FALSE,FALSE,FALSE,FALSE,FALSE,FALSE,2026-08-29T21:00:00Z,-105.990341,35.896923,1
2608292200,35.896923,-105.990334,0,237400,10,8,16.7,33.3,0,NA,43.2,5,2,199,13.9,0,AQB Smoke EBAM T-2,EBAM,FALSE,NA,FALSE,FALSE,FALSE,FALSE,FALSE,FALSE,FALSE,FALSE,FALSE,2026-08-29T22:00:00Z,-105.990341,35.896923,1
2608292300,35.896923,-105.990334,0,237400,-1.999,-1.999,16.7,30.3,0,NA,39.4,7,2.5,290,13.9,0,AQB Smoke EBAM T-2,EBAM,FALSE,NA,FALSE,FALSE,FALSE,FALSE,FALSE,FALSE,FALSE,FALSE,FALSE,2026-08-29T23:00:00Z,-105.990341,35.896923,1
2608300000,35.896923,-105.990334,0,237400,-1.999,-2.999,16.6,28.3,0,NA,35,11,2.7,351,13.9,0,AQB Smoke EBAM T-2,EBAM,FALSE,NA,FALSE,FALSE,FALSE,FALSE,FALSE,FALSE,FALSE,FALSE,FALSE,2026-08-30T00:00:00Z,-105.990341,35.896923,1
2608300100,35.896923,-105.990334,0,237400,-1.999,5,16.7,26.2,0,NA,32.2,15,2.1,78,14,0,AQB Smoke EBAM T-2,EBAM,FALSE,NA,FALSE,FALSE,FALSE,FALSE,FALSE,FALSE,FALSE,FALSE,FALSE,2026-08-30T01:00:00Z,-105.990341,35.896923,1
2608300200,35.896923,-105.990334,0,237400,8,3,16.7,25.3,0,NA,30.5,15,0.4,35,14,0,AQB Smoke EBAM T-2,EBAM,FALSE,NA,FALSE,FALSE,FALSE,FALSE,FALSE,FALSE,FALSE,FALSE,FALSE,2026-08-30T02:00:00Z,-105.990341,35.896923,1
2608300300,35.896923,-105.990334,0,237400,2,-0.9999,16.7,23,0,NA,28.7,18,0.3,244,14,0,AQB Smoke EBAM T-2,EBAM,FALSE,NA,FALSE,FALSE,FALSE,FALSE,FALSE,FALSE,FALSE,FALSE,FALSE,2026-08-30T03:00:00Z,-105.990341,35.896923,1
2608300400,35.896923,-105.990334,0,237400,5,8,16.7,19.6,0,NA,25.4,27,1.1,353,14,0,AQB Smoke EBAM T-2,EBAM,FALSE,NA,FALSE,FALSE,FALSE,FALSE,FALSE,FALSE,FALSE,FALSE,FALSE,2026-08-30T04:00:00Z,-105.990341,35.896923,1
2608300500,35.896923,-105.990334,0,237400,-4.999,-0.9999,16.7,17.4,0,NA,21.2,36,2.6,22,14,0,AQB Smoke EBAM T-2,EBAM,FALSE,NA,FALSE,FALSE,FALSE,FALSE,FALSE,FALSE,FALSE,FALSE,FALSE,2026-08-30T05:00:00Z,-105.990341,35.896923,1
2608300600,35.896923,-105.990334,0,237400,1,1,16.7,18.1,0,NA,21.5,33,2,8,14,0,AQB Smoke EBAM T-2,EBAM,FALSE,NA,FALSE,FALSE,FALSE,FALSE,FALSE,FALSE,FALSE,FALSE,FALSE,2026-08-30T06:00:00Z,-105.990341,35.896923,1
2608300700,35.896923,-105.990334,0,237400,6,7,16.7,17.4,0,NA,21.9,33,0.4,325,14,0,AQB Smoke EBAM T-2,EBAM,FALSE,NA,FALSE,FALSE,FALSE,FALSE,FALSE,FALSE,FALSE,FALSE,FALSE,2026-08-30T07:00:00Z,-105.990341,35.896923,1
2608300800,35.896923,-105.990334,0,237400,3,-1.999,16.7,16.3,0,NA,21.2,37,0.6,360,14,0,AQB Smoke EBAM T-2,EBAM,FALSE,NA,FALSE,FALSE,FALSE,FALSE,FALSE,FALSE,FALSE,FALSE,FALSE,2026-08-30T08:00:00Z,-105.990341,35.896923,1
2608300900,35.896923,-105.990334,0,237400,4,5,16.7,15.3,0,NA,20.5,38,1.1,152,14,0,AQB Smoke EBAM T-2,EBAM,FALSE,NA,FALSE,FALSE,FALSE,FALSE,FALSE,FALSE,FALSE,FALSE,FALSE,2026-08-30T09:00:00Z,-105.990341,35.896923,1
2608301000,35.896923,-105.990334,0,237400,1,-0.9999,16.7,15.9,0,NA,20.4,37,0.8,290,13.9,0,AQB Smoke EBAM T-2,EBAM,FALSE,NA,FALSE,FALSE,FALSE,FALSE,FALSE,FALSE,FALSE,FALSE,FALSE,2026-08-30T10:00:00Z,-105.990341,35.896923,1
2608301100,35.896923,-105.990334,0,237400,0,8,16.7,16.3,0,NA,20.8,37,0.3,320,13.9,0,AQB Smoke EBAM T-2,EBAM,FALSE,NA,FALSE,FALSE,FALSE,FALSE,FALSE,FALSE,FALSE,FALSE,FALSE,2026-08-30T11:00:00Z,-105.990341,35.896923,1
2608301200,35.896923,-105.990334,0,237400,11,4,16.7,15.7,0,NA,20.9,37,0.3,116,13.9,0,AQB Smoke EBAM T-2,EBAM,FALSE,NA,FALSE,FALSE,FALSE,FALSE,FALSE,FALSE,FALSE,FALSE,FALSE,2026-08-30T12:00:00Z,-105.990341,35.896923,1
2608301300,35.896923,-105.990334,0,237400,-1.999,0,16.7,15,0,NA,20.3,38,0.6,99,13.9,0,AQB Smoke EBAM T-2,EBAM,FALSE,NA,FALSE,FALSE,FALSE,FALSE,FALSE,FALSE,FALSE,FALSE,FALSE,2026-08-30T13:00:00Z,-105.990341,35.896923,1
2608301400,35.896923,-105.990334,NA,NA,NA,NA,NA,NA,NA,NA,NA,NA,NA,NA,NA,NA,AQB Smoke EBAM T-2,EBAM,TRUE,badType,FALSE,FALSE,TRUE,FALSE,FALSE,FALSE,FALSE,FALSE,FALSE,2026-08-30T14:00:00Z,-105.990341,35.896923,1
2608301500,35.896923,-105.990334,0,237400,4,3,16.7,18.7,0,NA,25.2,28,0.9,308,13.9,0,AQB Smoke EBAM T-2,EBAM,FALSE,NA,FALSE,FALSE,FALSE,FALSE,FALSE,FALSE,FALSE,FALSE,FALSE,2026-08-30T15:00:00Z,-105.990341,35.896923,1
2608301600,35.896942,-105.990303,0,237400,7,8,16.7,20,0,NA,28,23,1.2,289,13.8,0,AQB Smoke EBAM T-2,EBAM,FALSE,NA,FALSE,FALSE,FALSE,FALSE,FALSE,FALSE,FALSE,FALSE,FALSE,2026-08-30T16:00:00Z,-105.990341,35.896923,1
2608301700,35.896942,-105.990303,0,237400,4,6,16.7,22.5,0,NA,31,19,1.2,264,13.8,0,AQB Smoke EBAM T-2,EBAM,FALSE,NA,FALSE,FALSE,FALSE,FALSE,FALSE,FALSE,FALSE,FALSE,FALSE,2026-08-30T17:00:00Z,-105.990341,35.896923,1
2608301800,35.896942,-105.990303,0,237400,10,8,16.7,25.7,0,NA,35.9,12,1.2,209,13.8,0,AQB Smoke EBAM T-2,EBAM,FALSE,NA,FALSE,FALSE,FALSE,FALSE,FALSE,FALSE,FALSE,FALSE,FALSE,2026-08-30T18:00:00Z,-105.990341,35.896923,1
2608301900,35.896942,-105.990303,0,237400,7,4,16.7,27.1,0,NA,37.9,9,1.6,305,13.8,0,AQB Smoke EBAM T-2,EBAM,FALSE,NA,FALSE,FALSE,FALSE,FALSE,FALSE,FALSE,FALSE,FALSE,FALSE,2026-08-30T19:00:00Z,-105.990341,35.896923,1
2608302000,35.896942,-105.990303,0,237400,1,2,16.7,27.9,0,NA,38,9,1.6,322,13.9,0,AQB Smoke EBAM T-2,EBAM,FALSE,NA,FALSE,FALSE,FALSE,FALSE,FALSE,FALSE,FALSE,FALSE,FALSE,2026-08-30T20:00:00Z,-105.990341,35.896923,1
2608302100,35.896942,-105.990303,0,237400,1,1,16.7,28.5,0,NA,37.9,9,0.3,322,13.9,0,AQB Smoke EBAM T-2,EBAM,FALSE,NA,FALSE,FALSE,FALSE,FALSE,FALSE,FALSE,FALSE,FALSE,FALSE,2026-08-30T21:00:00Z,-105.990341,35.896923,1
2608302200,35.896942,-105.990303,0,237400,0,0,16.7,28.2,0,NA,37.2,9,0.3,308,13.8,0,AQB Smoke EBAM T-2,EBAM,FALSE,NA,FALSE,FALSE,FALSE,FALSE,FALSE,FALSE,FALSE,FALSE,FALSE,2026-08-30T22:00:00Z,-105.990341,35.896923,1
2608302300,35.896942,-105.990303,0,237400,3,3,16.7,29.4,0,NA,37.3,9,0.3,305,13.8,0,AQB Smoke EBAM T-2,EBAM,FALSE,NA,FALSE,FALSE,FALSE,FALSE,FALSE,FALSE,FALSE,FALSE,FALSE,2026-08-30T23:00:00Z,-105.990341,35.896923,1

Monitor AQB Smoke EBAM T-2, has 1 unique location(s)

Location

  • Blue circles - GPS locations
  • Red circle - clustered location

QC Parameters and Thresholds for an EBAM monitor

Raw PM2.5 Data and QC Removal

Raw CO data (if available)

## No CO data for this monitor

Raw PM2.5 and Atmospheric Variables

Pollution Rose

Currently disabled.

Additional Functionality

Please contact Jonathan Callahan or Gina Wing if you have ideas for additional functionality.